Time;durP1;ratioP1;P1;durP2;ratioP2;P2;SDS_P1;SDS_P2;PMS_P1;PMS_P2;Temp;Humidity;BMP_temperature;BMP_pressure;BME280_temperature;BME280_humidity;BME280_pressure;Samples;Min_cycle;Max_cycle;Signal;HPM_P1;HPM_P2
2021/12/16 00:09:00;;;;;;;12.88;8.90;;;1.00;87.10;;;;;;5071990;28;20016;-64
2021/12/16 00:28:59;;;;;;;13.27;9.57;;;1.00;86.90;;;;;;5029675;28;20079;-65
2021/12/16 00:31:19;;;;;;;12.88;9.02;;;1.00;86.50;;;;;;5071657;28;20066;-64
2021/12/16 00:33:57;;;;;;;11.60;8.45;;;1.00;86.70;;;;;;5052214;28;20043;-65
2021/12/16 00:36:23;;;;;;;12.90;8.90;;;1.00;87.00;;;;;;5051402;28;20021;-65
2021/12/16 00:38:49;;;;;;;11.93;8.60;;;1.00;86.80;;;;;;5051374;28;20405;-65
2021/12/16 00:41:14;;;;;;;13.15;8.88;;;1.00;86.90;;;;;;5051327;28;20484;-65
2021/12/16 00:43:51;;;;;;;13.07;9.23;;;0.90;86.90;;;;;;5051584;28;20453;-65
2021/12/16 00:56:32;;;;;;;12.02;8.65;;;1.00;87.40;;;;;;5051201;28;20108;-63
2021/12/16 00:59:00;;;;;;;11.80;8.18;;;0.90;87.30;;;;;;5051175;28;20454;-64
2021/12/16 01:01:38;;;;;;;11.35;8.07;;;0.90;87.50;;;;;;5050996;28;20017;-64
2021/12/16 01:06:53;;;;;;;11.15;7.20;;;0.90;87.80;;;;;;5053251;28;20457;-64
2021/12/16 01:10:27;;;;;;;10.65;7.30;;;0.90;87.90;;;;;;5058393;28;20013;-64
2021/12/16 01:40:42;;;;;;;10.25;6.75;;;0.80;88.30;;;;;;5077650;28;20534;-65
2021/12/16 01:50:49;;;;;;;9.38;6.32;;;0.80;89.00;;;;;;5077657;28;20062;-65
2021/12/16 01:55:51;;;;;;;10.40;6.70;;;0.80;88.70;;;;;;5077480;28;20066;-65
2021/12/16 01:58:21;;;;;;;9.50;6.38;;;0.80;88.80;;;;;;5077056;28;20650;-64
2021/12/16 02:03:54;;;;;;;9.98;6.68;;;0.80;88.70;;;;;;5077162;28;20028;-64
2021/12/16 02:09:18;;;;;;;10.70;6.90;;;0.80;88.80;;;;;;5077241;28;20088;-65
2021/12/16 02:33:53;;;;;;;9.13;5.93;;;0.80;89.70;;;;;;5057966;28;20072;-63
2021/12/16 02:36:28;;;;;;;8.75;5.47;;;0.80;89.80;;;;;;5053941;28;20132;-65
2021/12/16 02:39:03;;;;;;;8.88;5.25;;;0.80;89.90;;;;;;5053640;28;20025;-65
2021/12/16 02:41:29;;;;;;;9.05;5.57;;;0.70;89.90;;;;;;5053704;28;20021;-64
2021/12/16 02:49:06;;;;;;;8.75;5.65;;;0.70;90.10;;;;;;5053742;28;20039;-64
2021/12/16 02:51:32;;;;;;;8.77;5.22;;;0.70;90.10;;;;;;5053729;28;20037;-64
2021/12/16 02:54:04;;;;;;;8.85;5.72;;;0.70;90.10;;;;;;5053610;28;20033;-64
2021/12/16 02:56:31;;;;;;;9.55;5.95;;;0.70;90.10;;;;;;5052007;28;20040;-65
2021/12/16 02:58:58;;;;;;;8.38;5.35;;;0.80;90.20;;;;;;5053361;28;20057;-64
2021/12/16 03:01:25;;;;;;;9.43;6.05;;;0.80;90.10;;;;;;5053244;28;20091;-64
2021/12/16 03:03:52;;;;;;;10.30;6.28;;;0.80;90.20;;;;;;5053207;28;20021;-64
2021/12/16 03:06:18;;;;;;;10.52;6.57;;;0.80;90.30;;;;;;5053041;28;20021;-65
2021/12/16 03:08:44;;;;;;;10.18;6.43;;;0.80;90.30;;;;;;5053109;28;20028;-65
2021/12/16 03:16:44;;;;;;;7.97;5.18;;;0.70;90.30;;;;;;5052998;28;20070;-65
2021/12/16 03:19:21;;;;;;;8.50;5.43;;;0.60;90.30;;;;;;5053114;28;20031;-63
2021/12/16 03:21:52;;;;;;;8.60;5.15;;;0.60;90.40;;;;;;5052815;28;20061;-65
2021/12/16 03:32:31;;;;;;;7.15;4.22;;;0.60;90.40;;;;;;5057338;28;20086;-65
2021/12/16 03:35:27;;;;;;;7.07;4.00;;;0.60;90.60;;;;;;5072843;28;20036;-65
2021/12/16 03:37:54;;;;;;;7.40;4.45;;;0.60;90.30;;;;;;5072487;28;20498;-65
2021/12/16 03:40:20;;;;;;;7.65;4.55;;;0.70;90.30;;;;;;5072146;28;20033;-65
2021/12/16 03:42:50;;;;;;;7.50;4.10;;;0.70;90.30;;;;;;5072330;28;20090;-65
2021/12/16 03:48:05;;;;;;;7.25;3.78;;;0.70;90.20;;;;;;5072417;28;20537;-64
2021/12/16 03:50:32;;;;;;;6.00;3.53;;;0.70;90.20;;;;;;5072122;28;20067;-64
2021/12/16 03:52:58;;;;;;;6.72;3.55;;;0.70;90.20;;;;;;5072166;28;20035;-65
2021/12/16 03:55:24;;;;;;;6.82;3.40;;;0.70;90.20;;;;;;5072225;28;20533;-64
2021/12/16 03:57:50;;;;;;;6.03;3.40;;;0.80;90.30;;;;;;5072140;28;20041;-64
2021/12/16 04:00:21;;;;;;;5.82;3.30;;;0.80;90.40;;;;;;5071822;28;20027;-64
2021/12/16 04:02:48;;;;;;;5.93;3.42;;;0.80;90.30;;;;;;5072005;28;20468;-65
2021/12/16 04:05:16;;;;;;;5.13;2.92;;;0.80;90.30;;;;;;5071858;28;20024;-64
2021/12/16 04:07:42;;;;;;;5.32;2.72;;;0.80;90.30;;;;;;5071901;28;20028;-64
2021/12/16 04:10:13;;;;;;;4.53;2.30;;;0.90;90.30;;;;;;5071895;28;20348;-65
2021/12/16 04:12:39;;;;;;;4.10;2.10;;;0.90;90.20;;;;;;5071611;28;20177;-65
2021/12/16 04:15:08;;;;;;;4.20;2.10;;;0.80;90.20;;;;;;5071705;28;20025;-65
2021/12/16 04:17:35;;;;;;;3.47;1.80;;;0.80;90.30;;;;;;5071502;28;20023;-64
2021/12/16 04:20:04;;;;;;;3.80;1.90;;;0.80;90.30;;;;;;5071791;28;20020;-65
2021/12/16 04:22:37;;;;;;;3.00;1.60;;;0.90;90.40;;;;;;5071584;28;20037;-65
2021/12/16 04:25:08;;;;;;;3.65;1.70;;;0.90;90.50;;;;;;5071616;28;20012;-63
2021/12/16 04:27:35;;;;;;;3.55;1.60;;;0.90;90.50;;;;;;5071613;28;20430;-64
2021/12/16 04:30:01;;;;;;;3.88;1.85;;;0.90;90.50;;;;;;5071464;28;20037;-64
2021/12/16 04:32:27;;;;;;;3.80;1.70;;;0.90;90.50;;;;;;5064219;28;20392;-63
2021/12/16 04:34:53;;;;;;;3.10;1.70;;;1.00;90.40;;;;;;5051271;28;20029;-64
2021/12/16 04:37:18;;;;;;;3.40;1.80;;;1.00;90.50;;;;;;5051416;28;20025;-64
2021/12/16 04:39:45;;;;;;;3.45;1.60;;;1.00;90.40;;;;;;5051040;28;20455;-64
2021/12/16 04:42:13;;;;;;;3.75;1.80;;;1.00;90.50;;;;;;5050369;28;20116;-64
2021/12/16 04:44:41;;;;;;;3.33;1.77;;;1.00;90.50;;;;;;5051259;28;20032;-64
2021/12/16 04:47:08;;;;;;;4.30;2.20;;;1.00;90.50;;;;;;5051567;28;20020;-65
2021/12/16 04:49:34;;;;;;;3.90;1.98;;;1.10;90.50;;;;;;5051396;28;20025;-64
2021/12/16 04:52:07;;;;;;;3.88;2.00;;;1.10;90.60;;;;;;5051320;28;20434;-64
2021/12/16 04:54:33;;;;;;;3.75;1.95;;;1.10;90.60;;;;;;5050983;28;20028;-65
2021/12/16 04:57:01;;;;;;;4.05;1.95;;;1.10;90.50;;;;;;5051049;28;20073;-64
2021/12/16 04:59:29;;;;;;;3.60;1.83;;;1.10;90.50;;;;;;5049763;28;20096;-65
2021/12/16 05:02:02;;;;;;;4.00;2.03;;;1.20;90.50;;;;;;5051126;28;20021;-65
2021/12/16 05:04:28;;;;;;;4.15;2.10;;;1.20;90.50;;;;;;5050917;28;20126;-64
2021/12/16 05:06:53;;;;;;;4.22;2.30;;;1.20;90.40;;;;;;5051001;28;20039;-65
2021/12/16 05:09:58;;;;;;;4.03;1.80;;;1.20;90.40;;;;;;5051165;28;20147;-64
2021/12/16 05:12:08;;;;;;;4.03;2.03;;;1.20;90.40;;;;;;5050671;28;20037;-64
2021/12/16 05:14:33;;;;;;;5.03;2.53;;;1.30;90.30;;;;;;5050869;28;20055;-65
2021/12/16 05:16:59;;;;;;;4.45;2.20;;;1.30;90.30;;;;;;5050902;28;20399;-65
2021/12/16 05:19:25;;;;;;;5.50;2.63;;;1.30;90.30;;;;;;5050832;28;20550;-65
2021/12/16 05:24:12;;;;;;;6.22;3.30;;;1.30;90.10;;;;;;5050845;28;20056;-65
2021/12/16 05:24:40;;;;;;;7.20;3.45;;;1.20;90.10;;;;;;5050698;28;20021;-65
2021/12/16 05:27:09;;;;;;;7.20;3.33;;;1.20;90.20;;;;;;5049590;28;20029;-64
2021/12/16 05:29:36;;;;;;;9.10;5.28;;;1.20;90.20;;;;;;5050818;28;20021;-65
2021/12/16 05:32:03;;;;;;;7.60;4.60;;;1.20;90.10;;;;;;5054275;28;20028;-65
2021/12/16 05:34:29;;;;;;;8.50;5.22;;;1.20;90.00;;;;;;5070526;28;20020;-65
2021/12/16 05:36:55;;;;;;;9.20;5.97;;;1.20;90.00;;;;;;5070999;28;20471;-65
2021/12/16 05:39:21;;;;;;;10.38;6.72;;;1.20;89.90;;;;;;5070405;28;20064;-64
2021/12/16 05:41:48;;;;;;;14.55;9.00;;;1.20;90.00;;;;;;5070529;28;20090;-65
2021/12/16 05:44:14;;;;;;;16.27;9.38;;;1.20;89.90;;;;;;5070424;28;20019;-65
2021/12/16 05:46:41;;;;;;;18.35;10.70;;;1.20;89.70;;;;;;5070628;28;20035;-65
2021/12/16 05:49:10;;;;;;;13.00;7.10;;;1.20;89.80;;;;;;5070796;28;20033;-64
2021/12/16 05:51:38;;;;;;;10.85;6.50;;;1.10;89.40;;;;;;5070595;28;20052;-65
2021/12/16 05:54:06;;;;;;;9.75;5.85;;;1.00;89.90;;;;;;5073749;28;20032;-65
2021/12/16 05:56:32;;;;;;;9.07;5.60;;;1.00;89.80;;;;;;5074244;28;20028;-65
2021/12/16 05:58:58;;;;;;;9.02;5.10;;;1.00;90.00;;;;;;5074614;28;20037;-65
2021/12/16 06:01:28;;;;;;;8.30;4.90;;;1.00;90.00;;;;;;5072462;28;20119;-65
2021/12/16 06:03:54;;;;;;;9.93;6.10;;;0.90;90.10;;;;;;5074056;28;20024;-65
2021/12/16 06:06:21;;;;;;;11.18;6.70;;;1.00;90.00;;;;;;5074114;28;20066;-65
2021/12/16 06:08:48;;;;;;;12.23;7.47;;;0.90;90.00;;;;;;5074283;28;20035;-66
2021/12/16 06:11:22;;;;;;;14.43;8.20;;;1.00;90.20;;;;;;5074087;28;20390;-65
2021/12/16 06:27:29;;;;;;;16.67;9.45;;;1.00;90.40;;;;;;5073709;28;20098;-64
2021/12/16 06:29:55;;;;;;;14.23;8.57;;;1.10;90.20;;;;;;5072364;28;20054;-64
2021/12/16 06:32:21;;;;;;;12.85;6.70;;;1.00;90.20;;;;;;5067338;28;20025;-64
2021/12/16 06:34:47;;;;;;;13.98;7.75;;;1.00;90.30;;;;;;5053470;28;20063;-64
2021/12/16 06:37:13;;;;;;;13.85;8.18;;;1.10;90.40;;;;;;5053197;28;20057;-65
2021/12/16 06:39:39;;;;;;;13.57;7.93;;;1.10;90.20;;;;;;5052359;28;20025;-65
2021/12/16 06:42:07;;;;;;;13.15;8.07;;;1.10;90.30;;;;;;5053434;28;20071;-64
2021/12/16 06:44:40;;;;;;;12.93;7.97;;;1.10;90.30;;;;;;5053503;28;20023;-66
2021/12/16 06:47:11;;;;;;;16.42;9.93;;;1.10;90.30;;;;;;5053495;28;20358;-65
2021/12/16 06:49:40;;;;;;;17.15;11.68;;;1.20;90.10;;;;;;5053825;28;20021;-65
2021/12/16 06:52:08;;;;;;;13.95;9.20;;;1.20;90.00;;;;;;5053357;28;20120;-66
2021/12/16 06:54:43;;;;;;;12.95;9.10;;;1.20;90.10;;;;;;5053252;28;20021;-65
2021/12/16 06:57:53;;;;;;;14.55;9.07;;;1.20;90.20;;;;;;5053160;28;20031;-66
2021/12/16 07:00:10;;;;;;;15.38;10.05;;;1.20;90.10;;;;;;5047228;28;20036;-66
2021/12/16 07:02:49;;;;;;;17.10;10.23;;;1.20;90.20;;;;;;5053053;28;20048;-66
2021/12/16 07:05:17;;;;;;;18.48;10.98;;;1.20;90.30;;;;;;5052131;28;20017;-66
2021/12/16 07:07:43;;;;;;;16.05;9.40;;;1.30;90.20;;;;;;5053473;28;20025;-65
2021/12/16 07:10:11;;;;;;;14.85;9.05;;;1.30;90.30;;;;;;5052923;28;20472;-64
2021/12/16 07:12:39;;;;;;;12.73;7.90;;;1.30;90.20;;;;;;5052746;28;20044;-66
2021/12/16 07:15:10;;;;;;;14.50;8.73;;;1.30;90.10;;;;;;5053217;28;20059;-65
2021/12/16 07:17:38;;;;;;;16.05;10.50;;;1.30;90.20;;;;;;5052790;28;20028;-67
2021/12/16 07:20:07;;;;;;;16.23;10.18;;;1.20;90.20;;;;;;5052870;28;20029;-65
2021/12/16 07:22:34;;;;;;;20.70;11.77;;;1.20;90.40;;;;;;5052783;28;20112;-65
2021/12/16 07:25:01;;;;;;;21.58;13.77;;;1.30;90.30;;;;;;5052842;28;20021;-65
2021/12/16 07:27:27;;;;;;;27.48;16.92;;;1.30;90.40;;;;;;5052305;28;20032;-65
2021/12/16 07:29:52;;;;;;;28.85;17.98;;;1.20;90.40;;;;;;5052651;28;20029;-66
2021/12/16 07:32:18;;;;;;;24.58;16.05;;;1.30;90.50;;;;;;5058340;28;20024;-65
2021/12/16 07:34:44;;;;;;;22.42;14.18;;;1.30;90.40;;;;;;5072511;28;20107;-65
2021/12/16 07:37:10;;;;;;;23.50;15.13;;;1.30;90.30;;;;;;5072413;28;20032;-64
2021/12/16 07:39:41;;;;;;;24.25;15.68;;;1.40;90.10;;;;;;5072579;28;20060;-65
2021/12/16 07:42:13;;;;;;;25.95;16.10;;;1.40;90.10;;;;;;5072385;28;20020;-65
2021/12/16 07:44:39;;;;;;;27.90;17.40;;;1.40;90.30;;;;;;5072438;28;20494;-66
2021/12/16 07:47:09;;;;;;;20.50;13.57;;;1.40;90.30;;;;;;5072167;28;20024;-65
2021/12/16 07:49:40;;;;;;;24.52;14.68;;;1.40;90.30;;;;;;5072384;28;20071;-65
2021/12/16 07:52:07;;;;;;;20.80;12.70;;;1.50;90.10;;;;;;5072181;28;20511;-65
2021/12/16 07:54:33;;;;;;;20.63;12.27;;;1.40;90.20;;;;;;5071952;28;20111;-66
2021/12/16 07:57:00;;;;;;;19.35;11.85;;;1.40;90.40;;;;;;5072084;28;20450;-66
2021/12/16 07:59:29;;;;;;;18.17;12.75;;;1.40;90.40;;;;;;5071847;28;20032;-66
2021/12/16 08:01:56;;;;;;;21.27;13.40;;;1.40;90.30;;;;;;5071866;28;20104;-66
2021/12/16 08:04:28;;;;;;;22.35;12.65;;;1.40;90.30;;;;;;5070560;28;20020;-66
2021/12/16 08:06:57;;;;;;;21.80;12.85;;;1.40;90.40;;;;;;5072117;28;20080;-66
2021/12/16 08:09:24;;;;;;;25.00;15.50;;;1.40;90.50;;;;;;5070251;28;20077;-65
2021/12/16 08:11:50;;;;;;;21.08;13.68;;;1.50;90.40;;;;;;5071630;28;20451;-64
2021/12/16 08:14:17;;;;;;;26.70;15.50;;;1.50;90.40;;;;;;5071723;28;20044;-66
2021/12/16 08:16:44;;;;;;;33.25;19.30;;;1.50;90.30;;;;;;5070706;28;20043;-66
2021/12/16 08:19:10;;;;;;;31.38;18.23;;;1.60;90.20;;;;;;5071747;28;20445;-67
2021/12/16 08:21:38;;;;;;;26.20;18.05;;;1.60;90.20;;;;;;5070403;28;20036;-66
2021/12/16 08:24:08;;;;;;;29.23;18.52;;;1.60;90.20;;;;;;5071633;28;20032;-65
2021/12/16 08:26:35;;;;;;;29.10;18.77;;;1.60;90.20;;;;;;5071475;28;20021;-66
2021/12/16 08:29:01;;;;;;;32.88;19.85;;;1.60;90.30;;;;;;5071712;28;20024;-65
2021/12/16 08:31:28;;;;;;;32.95;21.33;;;1.60;90.30;;;;;;5071595;28;20051;-66
2021/12/16 08:33:54;;;;;;;33.83;21.25;;;1.60;90.40;;;;;;5069754;28;20368;-65
2021/12/16 08:36:20;;;;;;;32.38;19.70;;;1.70;90.30;;;;;;5071273;28;20036;-65
2021/12/16 08:38:46;;;;;;;31.52;18.75;;;1.70;90.20;;;;;;5071251;28;20154;-66
2021/12/16 08:41:29;;;;;;;32.80;19.13;;;1.70;90.20;;;;;;5071091;28;20491;-65
2021/12/16 08:43:54;;;;;;;27.45;16.38;;;1.70;90.20;;;;;;5070969;28;20104;-66
2021/12/16 08:46:23;;;;;;;30.15;17.80;;;1.60;90.30;;;;;;5071239;28;20535;-65
2021/12/16 08:48:49;;;;;;;30.45;17.75;;;1.70;90.20;;;;;;5071173;28;20028;-65
2021/12/16 08:51:18;;;;;;;29.80;17.23;;;1.70;90.20;;;;;;5071042;28;20491;-66
2021/12/16 08:53:44;;;;;;;30.52;19.20;;;1.70;90.40;;;;;;5071025;28;20029;-65
2021/12/16 08:56:12;;;;;;;31.90;20.50;;;1.70;90.30;;;;;;5069964;28;20047;-65
2021/12/16 08:58:38;;;;;;;30.10;19.40;;;1.80;90.00;;;;;;5070997;28;20021;-66
2021/12/16 09:01:08;;;;;;;32.53;20.05;;;1.90;89.80;;;;;;5069527;28;20399;-67
2021/12/16 09:03:34;;;;;;;33.08;20.35;;;1.90;89.80;;;;;;5071320;28;20021;-65
2021/12/16 09:06:01;;;;;;;38.83;23.02;;;1.80;89.90;;;;;;5071012;28;20031;-65
2021/12/16 09:08:27;;;;;;;35.75;21.75;;;1.80;90.00;;;;;;5070991;28;20017;-65
2021/12/16 09:10:53;;;;;;;33.85;20.17;;;1.80;90.10;;;;;;5070735;28;20502;-65
2021/12/16 09:13:19;;;;;;;34.53;21.13;;;1.70;90.30;;;;;;5070677;28;20118;-66
2021/12/16 09:15:54;;;;;;;30.08;18.73;;;1.80;90.40;;;;;;5070714;28;20054;-64
2021/12/16 09:18:26;;;;;;;28.67;17.63;;;1.80;90.40;;;;;;5070759;28;20020;-65
2021/12/16 09:20:54;;;;;;;27.23;16.77;;;1.80;90.40;;;;;;5070771;28;20028;-65
2021/12/16 09:23:20;;;;;;;27.58;17.50;;;1.80;90.40;;;;;;5070525;28;20032;-66
2021/12/16 09:25:48;;;;;;;28.88;17.92;;;1.80;90.50;;;;;;5070766;28;20035;-66
2021/12/16 09:28:16;;;;;;;29.52;17.63;;;1.90;90.40;;;;;;5072750;28;20032;-65
2021/12/16 09:30:42;;;;;;;30.58;18.27;;;2.00;90.40;;;;;;5075265;28;20039;-64
2021/12/16 09:33:14;;;;;;;31.55;18.40;;;2.00;90.30;;;;;;5061926;28;20420;-64
2021/12/16 09:35:42;;;;;;;30.40;18.05;;;2.00;90.40;;;;;;5054713;28;20041;-67
2021/12/16 09:38:11;;;;;;;30.27;18.00;;;2.00;90.40;;;;;;5054645;28;20027;-66
2021/12/16 09:40:47;;;;;;;28.98;16.73;;;2.10;90.30;;;;;;5054763;28;20031;-65
2021/12/16 09:43:13;;;;;;;27.15;17.20;;;2.10;90.10;;;;;;5054844;28;20087;-65
2021/12/16 09:45:40;;;;;;;26.13;16.52;;;2.20;90.30;;;;;;5054951;28;20027;-66
2021/12/16 09:48:06;;;;;;;27.85;16.60;;;2.20;90.20;;;;;;5054384;28;20459;-65
2021/12/16 09:50:32;;;;;;;28.80;17.30;;;2.20;90.00;;;;;;5054112;28;20032;-66
2021/12/16 09:53:00;;;;;;;30.70;19.80;;;2.20;90.10;;;;;;5054909;28;20020;-66
2021/12/16 09:55:27;;;;;;;30.20;18.95;;;2.20;90.10;;;;;;5054381;28;20049;-66
2021/12/16 09:57:54;;;;;;;22.08;14.38;;;2.20;90.20;;;;;;5053417;28;20021;-66
2021/12/16 10:00:27;;;;;;;19.58;12.07;;;2.20;89.80;;;;;;5054301;28;20074;-65
2021/12/16 10:02:53;;;;;;;23.38;14.90;;;2.20;90.00;;;;;;5054786;28;20427;-65
2021/12/16 10:05:21;;;;;;;22.73;13.82;;;2.30;90.00;;;;;;5054573;28;20013;-65
2021/12/16 10:07:47;;;;;;;23.70;13.98;;;2.30;89.50;;;;;;5054185;28;20025;-66
2021/12/16 10:10:19;;;;;;;30.33;17.92;;;2.30;89.60;;;;;;5054149;28;20086;-67
2021/12/16 10:12:49;;;;;;;25.25;14.95;;;2.30;90.00;;;;;;5054070;28;20052;-66
2021/12/16 10:18:20;;;;;;;20.70;11.73;;;2.30;89.20;;;;;;5054359;28;20029;-66
2021/12/16 10:20:53;;;;;;;20.48;12.38;;;2.20;89.30;;;;;;5054004;28;20025;-66
2021/12/16 10:23:22;;;;;;;;;;;2.30;89.30;;;;;;5054136;28;20381;-66
2021/12/16 10:26:09;;;;;;;20.38;12.30;;;2.20;89.10;;;;;;5054259;28;20352;-66
2021/12/16 10:28:35;;;;;;;24.45;14.73;;;2.20;89.10;;;;;;5053813;28;20025;-66
2021/12/16 10:31:09;;;;;;;22.95;13.98;;;2.20;89.50;;;;;;5053818;28;20040;-67
2021/12/16 10:33:38;;;;;;;22.77;15.15;;;2.20;89.60;;;;;;5070236;28;20107;-66
2021/12/16 10:36:24;;;;;;;21.70;14.30;;;2.20;89.60;;;;;;5074118;28;20157;-66
2021/12/16 10:38:55;;;;;;;22.48;13.45;;;2.30;88.40;;;;;;5071719;28;20244;-66
2021/12/16 10:41:49;;;;;;;23.38;14.32;;;2.30;88.80;;;;;;5071903;28;20021;-66
2021/12/16 10:44:24;;;;;;;23.77;14.60;;;2.30;89.30;;;;;;5070543;28;20484;-67
2021/12/16 10:47:02;;;;;;;25.98;15.88;;;2.30;89.30;;;;;;5073637;28;20674;-65
2021/12/16 10:49:39;;;;;;;23.17;14.60;;;2.40;89.00;;;;;;5073337;28;20445;-65
2021/12/16 10:52:16;;;;;;;26.08;16.08;;;2.40;88.60;;;;;;5073961;28;20800;-66
2021/12/16 10:54:45;;;;;;;28.58;17.15;;;2.30;88.60;;;;;;5073524;28;20086;-66
2021/12/16 10:57:15;;;;;;;28.85;17.75;;;2.40;88.30;;;;;;5073348;28;20104;-66
2021/12/16 10:59:48;;;;;;;28.83;18.00;;;2.40;88.60;;;;;;5073287;28;20052;-65
2021/12/16 11:02:22;;;;;;;31.88;18.17;;;2.50;88.80;;;;;;5073539;28;20029;-65
2021/12/16 11:04:56;;;;;;;28.50;17.33;;;2.50;88.80;;;;;;5073099;28;20020;-66
2021/12/16 11:07:36;;;;;;;30.70;18.30;;;2.50;87.80;;;;;;5073140;28;20096;-65
2021/12/16 11:10:08;;;;;;;28.02;18.08;;;2.60;87.50;;;;;;5073078;28;20048;-65
2021/12/16 11:12:43;;;;;;;25.70;16.27;;;2.70;87.60;;;;;;5071818;28;20041;-66
2021/12/16 11:15:14;;;;;;;25.48;15.32;;;2.70;87.10;;;;;;5073133;28;20082;-66
2021/12/16 11:17:40;;;;;;;25.83;16.15;;;2.80;86.60;;;;;;5072993;28;20028;-66
2021/12/16 11:20:23;;;;;;;23.75;15.55;;;2.70;86.90;;;;;;5073610;28;20522;-66
2021/12/16 11:22:55;;;;;;;26.60;15.82;;;2.70;87.00;;;;;;5072671;28;20032;-65
2021/12/16 11:25:32;;;;;;;25.15;15.38;;;2.60;87.40;;;;;;5073106;28;20029;-66
2021/12/16 11:28:22;;;;;;;25.77;16.25;;;2.70;86.90;;;;;;5072923;28;20020;-66
2021/12/16 11:30:53;;;;;;;23.77;15.00;;;2.80;86.60;;;;;;5070154;28;20041;-67
2021/12/16 11:33:33;;;;;;;22.98;14.68;;;2.70;87.00;;;;;;5058474;28;20110;-66
2021/12/16 11:36:17;;;;;;;21.98;14.85;;;2.80;86.70;;;;;;5052822;28;20483;-66
2021/12/16 11:39:04;;;;;;;30.38;18.48;;;2.80;86.20;;;;;;5052840;28;20029;-65
2021/12/16 11:41:39;;;;;;;28.27;16.83;;;2.80;85.90;;;;;;5051833;28;20033;-67
2021/12/16 11:44:39;;;;;;;28.58;18.85;;;2.90;85.80;;;;;;5052029;28;20025;-66
2021/12/16 11:47:09;;;;;;;26.42;15.73;;;2.90;86.30;;;;;;5047131;28;20387;-66
2021/12/16 11:49:40;;;;;;;24.75;15.88;;;2.90;85.80;;;;;;5051951;28;20025;-67
2021/12/16 11:52:17;;;;;;;23.50;15.10;;;2.90;85.60;;;;;;5051621;28;20480;-66
2021/12/16 11:54:53;;;;;;;24.13;16.10;;;2.90;85.60;;;;;;5050839;28;20479;-66
2021/12/16 11:57:38;;;;;;;24.15;15.93;;;2.90;86.00;;;;;;5051967;28;20473;-66
2021/12/16 12:00:15;;;;;;;23.45;15.25;;;2.90;85.90;;;;;;5051461;28;20033;-66
2021/12/16 12:02:49;;;;;;;23.48;14.65;;;2.90;85.50;;;;;;5051134;28;20060;-65
2021/12/16 12:05:32;;;;;;;20.95;13.40;;;2.90;85.20;;;;;;5052048;28;20124;-66
2021/12/16 12:08:14;;;;;;;21.00;13.88;;;2.90;85.50;;;;;;5051547;28;20376;-66
2021/12/16 12:10:45;;;;;;;24.27;15.45;;;2.90;84.90;;;;;;5051183;28;20021;-66
2021/12/16 12:13:20;;;;;;;25.17;16.35;;;2.90;85.30;;;;;;5051340;28;20041;-66
2021/12/16 12:15:58;;;;;;;28.20;17.27;;;2.90;85.80;;;;;;5051567;28;20017;-66
2021/12/16 12:18:49;;;;;;;22.83;14.70;;;2.90;85.80;;;;;;5051795;28;20048;-68
2021/12/16 12:21:21;;;;;;;25.95;16.38;;;2.90;85.50;;;;;;5050597;28;20056;-67
2021/12/16 12:23:59;;;;;;;24.50;15.23;;;2.80;85.90;;;;;;5051780;28;20583;-64
2021/12/16 12:26:27;;;;;;;25.58;15.77;;;2.80;86.10;;;;;;5050284;28;20025;-65
2021/12/16 12:29:07;;;;;;;24.30;15.25;;;2.90;85.80;;;;;;5051685;28;20033;-66
2021/12/16 12:31:35;;;;;;;23.67;14.68;;;2.90;85.80;;;;;;5051532;28;20025;-67
2021/12/16 12:34:01;;;;;;;25.25;16.40;;;2.90;85.60;;;;;;5068614;28;20123;-66
2021/12/16 12:36:27;;;;;;;26.30;16.60;;;3.00;85.30;;;;;;5050012;28;20024;-65
2021/12/16 12:38:53;;;;;;;22.80;14.43;;;3.20;87.30;;;;;;5055339;28;20021;-65
2021/12/16 12:41:20;;;;;;;22.48;14.10;;;3.60;85.50;;;;;;5070589;28;20032;-67
2021/12/16 12:43:46;;;;;;;21.13;13.68;;;4.10;84.90;;;;;;5071429;28;20028;-65
2021/12/16 12:46:13;;;;;;;22.48;14.02;;;4.50;80.60;;;;;;5051352;28;20028;-65
2021/12/16 12:48:42;;;;;;;23.95;15.18;;;4.40;79.20;;;;;;5051707;28;20044;-65
2021/12/16 12:51:09;;;;;;;22.38;13.35;;;4.10;79.90;;;;;;5051454;28;20511;-65
2021/12/16 12:53:47;;;;;;;24.95;14.95;;;3.90;80.50;;;;;;5049864;28;20029;-66
2021/12/16 12:56:21;;;;;;;26.63;15.10;;;3.60;81.60;;;;;;5051107;28;20468;-65
2021/12/16 12:58:55;;;;;;;25.33;15.57;;;3.40;82.70;;;;;;5052020;28;20028;-65
2021/12/16 13:01:48;;;;;;;29.10;17.20;;;3.30;83.50;;;;;;5051071;28;20100;-66
2021/12/16 13:04:19;;;;;;;24.33;14.20;;;3.20;84.00;;;;;;5050788;28;20025;-66
2021/12/16 13:07:09;;;;;;;24.45;14.00;;;3.10;84.40;;;;;;5050881;28;20100;-68
2021/12/16 13:09:41;;;;;;;25.48;15.13;;;3.00;84.70;;;;;;5051152;28;20021;-65
2021/12/16 13:12:31;;;;;;;23.48;14.93;;;3.00;85.00;;;;;;5050831;28;20543;-65
2021/12/16 13:15:08;;;;;;;25.75;15.45;;;2.90;85.80;;;;;;5050998;28;20029;-67
2021/12/16 13:24:17;;;;;;;24.73;15.38;;;3.00;85.70;;;;;;5050742;28;20040;-65
2021/12/16 13:27:13;;;;;;;24.85;14.88;;;2.90;85.90;;;;;;5051000;28;20021;-66
2021/12/16 13:29:43;;;;;;;24.73;14.30;;;2.80;86.10;;;;;;5050954;28;20035;-68
2021/12/16 13:32:23;;;;;;;28.13;17.25;;;2.70;86.50;;;;;;5050735;28;20384;-66
2021/12/16 13:35:10;;;;;;;30.48;18.30;;;2.70;86.60;;;;;;5070537;28;20020;-65
2021/12/16 13:37:45;;;;;;;28.00;17.67;;;2.70;87.20;;;;;;5070943;28;20035;-66
2021/12/16 13:40:14;;;;;;;27.02;17.05;;;2.70;87.50;;;;;;5070625;28;20052;-66
2021/12/16 13:42:55;;;;;;;26.38;15.57;;;2.70;87.50;;;;;;5070593;28;20056;-65
2021/12/16 13:45:34;;;;;;;26.10;17.02;;;2.60;87.70;;;;;;5071070;28;20029;-65
2021/12/16 14:02:52;;;;;;;27.38;16.50;;;2.30;89.20;;;;;;5070466;28;20043;-66
2021/12/16 14:05:40;;;;;;;29.75;17.02;;;2.30;89.90;;;;;;5070666;28;20028;-66
2021/12/16 14:08:13;;;;;;;30.00;18.33;;;2.30;89.70;;;;;;5070678;28;20028;-65
2021/12/16 14:10:51;;;;;;;30.35;18.00;;;2.30;90.10;;;;;;5070542;28;20017;-66
2021/12/16 14:16:21;;;;;;;31.00;17.58;;;2.30;90.30;;;;;;5074146;28;20032;-65
2021/12/16 14:25:15;;;;;;;28.45;16.70;;;2.40;90.20;;;;;;5073955;28;20116;-66
2021/12/16 14:37:03;;;;;;;30.35;18.10;;;2.40;90.40;;;;;;5053492;28;20028;-66
2021/12/16 14:46:07;;;;;;;33.70;19.23;;;2.40;90.60;;;;;;5053441;28;20426;-66
2021/12/16 14:50:43;;;;;;;27.88;16.58;;;2.40;90.80;;;;;;5053566;28;20033;-66
2021/12/16 14:53:23;;;;;;;28.75;16.95;;;2.30;90.90;;;;;;5053358;28;20032;-66
2021/12/16 14:55:51;;;;;;;28.90;16.05;;;2.30;91.00;;;;;;5053517;28;20021;-66
2021/12/16 14:58:20;;;;;;;28.08;16.58;;;2.30;91.10;;;;;;5053222;28;20021;-66
2021/12/16 15:00:53;;;;;;;26.90;16.67;;;2.30;91.10;;;;;;5052058;28;20032;-66
2021/12/16 15:03:29;;;;;;;30.33;17.25;;;2.30;91.10;;;;;;5053135;28;20493;-66
2021/12/16 15:06:09;;;;;;;30.95;17.92;;;2.30;91.30;;;;;;5052957;28;20115;-66
2021/12/16 15:11:08;;;;;;;32.63;19.52;;;2.30;91.50;;;;;;5053808;28;20035;-65
2021/12/16 15:13:41;;;;;;;36.25;22.15;;;2.20;91.60;;;;;;5052626;28;20052;-66
2021/12/16 15:16:32;;;;;;;;;;;2.30;91.80;;;;;;5053268;28;20021;-66
2021/12/16 15:43:54;;;;;;;37.63;23.60;;;2.40;92.20;;;;;;5072629;28;20574;-67
2021/12/16 15:46:20;;;;;;;43.97;24.85;;;2.40;92.30;;;;;;5072429;28;20028;-66
2021/12/16 15:48:51;;;;;;;39.95;23.70;;;2.30;92.40;;;;;;5072362;28;20380;-65
2021/12/16 15:51:17;;;;;;;38.25;22.92;;;2.30;92.50;;;;;;5072219;28;20150;-66
2021/12/16 15:53:46;;;;;;;38.15;23.35;;;2.30;92.60;;;;;;5072159;28;20101;-65
2021/12/16 15:56:19;;;;;;;39.75;24.05;;;2.40;92.60;;;;;;5071931;28;20025;-66
2021/12/16 15:58:51;;;;;;;42.55;26.20;;;2.30;92.60;;;;;;5071930;28;20024;-66
2021/12/16 16:01:24;;;;;;;43.50;25.50;;;2.40;92.60;;;;;;5071743;28;20103;-66
2021/12/16 16:03:51;;;;;;;42.88;26.27;;;2.40;92.60;;;;;;5071663;28;20027;-67
2021/12/16 16:06:18;;;;;;;39.90;25.40;;;2.40;92.70;;;;;;5071850;28;20039;-65
2021/12/16 16:08:56;;;;;;;48.80;27.65;;;2.40;92.80;;;;;;5071873;28;20027;-66
2021/12/16 16:11:28;;;;;;;50.30;28.13;;;2.40;92.80;;;;;;5071836;28;20452;-65
2021/12/16 16:13:59;;;;;;;47.15;29.02;;;2.50;92.90;;;;;;5070683;28;20048;-67
2021/12/16 16:16:31;;;;;;;50.13;29.17;;;2.50;92.90;;;;;;5071548;28;20060;-66
2021/12/16 16:19:00;;;;;;;47.95;29.83;;;2.50;93.10;;;;;;5071784;28;20029;-65
2021/12/16 16:21:39;;;;;;;48.58;29.00;;;2.50;93.20;;;;;;5071973;28;20114;-65
2021/12/16 16:24:21;;;;;;;50.33;29.17;;;2.50;93.20;;;;;;5070239;28;20112;-67
2021/12/16 16:26:51;;;;;;;52.58;31.30;;;2.50;93.10;;;;;;5071555;28;20095;-66
2021/12/16 16:29:19;;;;;;;51.45;31.27;;;2.60;93.20;;;;;;5071856;28;20345;-66
2021/12/16 16:31:46;;;;;;;55.08;33.30;;;2.60;93.30;;;;;;5071600;28;20127;-66
2021/12/16 16:34:18;;;;;;;54.35;32.88;;;2.60;93.50;;;;;;5071163;28;20498;-66
2021/12/16 16:36:54;;;;;;;51.83;30.95;;;2.60;93.50;;;;;;5070992;28;20064;-66
2021/12/16 16:39:23;;;;;;;49.53;29.92;;;2.60;93.60;;;;;;5071223;28;20017;-67
2021/12/16 16:42:13;;;;;;;51.45;30.73;;;2.60;93.70;;;;;;5071397;28;20032;-68